createdAt,value
2023-03-20T00:00:39.173Z,8.46
2023-03-20T00:05:40.501Z,8.42
2023-03-20T00:10:41.768Z,8.40
2023-03-20T00:15:43.033Z,8.36
2023-03-20T00:20:44.503Z,8.36
2023-03-20T00:25:45.895Z,8.34
2023-03-20T00:30:47.089Z,8.33
2023-03-20T00:35:48.348Z,8.30
2023-03-20T00:40:49.624Z,8.29
2023-03-20T00:45:50.922Z,8.27
2023-03-20T00:50:52.464Z,8.24
2023-03-20T00:55:53.672Z,8.26
2023-03-20T01:00:55.032Z,8.24
2023-03-20T01:05:57.404Z,8.20
2023-03-20T01:10:58.603Z,8.20
2023-03-20T01:15:59.943Z,8.19
2023-03-20T01:21:01.186Z,8.16
2023-03-20T01:26:02.900Z,8.16
2023-03-20T01:31:04.145Z,8.13
2023-03-20T01:36:05.624Z,8.12
2023-03-20T01:41:06.922Z,8.16
2023-03-20T01:46:08.201Z,8.13
2023-03-20T01:51:09.385Z,8.22
2023-03-20T01:56:10.577Z,8.17
2023-03-20T02:01:11.990Z,8.13
2023-03-20T02:06:13.181Z,8.13
2023-03-20T02:11:14.362Z,8.16
2023-03-20T02:16:15.656Z,8.19
2023-03-20T02:21:17.030Z,8.18
2023-03-20T02:26:18.350Z,8.13
2023-03-20T02:31:19.573Z,8.11
2023-03-20T02:36:22.152Z,8.11
2023-03-20T02:41:23.539Z,8.12
2023-03-20T02:46:24.815Z,8.13
2023-03-20T02:51:26.017Z,8.13
2023-03-20T02:56:27.146Z,8.12
2023-03-20T03:01:28.426Z,8.10
2023-03-20T03:06:29.721Z,8.08
2023-03-20T03:11:30.936Z,8.06
2023-03-20T03:16:32.172Z,8.07
2023-03-20T03:21:33.396Z,8.04
2023-03-20T03:26:34.652Z,8.05
2023-03-20T03:31:35.908Z,8.00
2023-03-20T03:36:37.082Z,8.01
2023-03-20T03:41:38.226Z,8.01
2023-03-20T03:46:39.390Z,7.93
2023-03-20T03:51:40.678Z,7.75
2023-03-20T03:56:41.885Z,7.60
2023-03-20T04:01:44.515Z,7.49
2023-03-20T04:06:45.843Z,7.56
2023-03-20T04:11:47.044Z,7.65
2023-03-20T04:16:48.278Z,7.67
2023-03-20T04:21:49.493Z,7.64
2023-03-20T04:26:50.704Z,7.64
2023-03-20T04:31:51.950Z,7.61
2023-03-20T04:36:53.169Z,7.61
2023-03-20T04:41:54.339Z,7.59
2023-03-20T04:46:55.651Z,7.54
2023-03-20T04:51:56.869Z,7.43
2023-03-20T04:56:58.031Z,7.35
2023-03-20T05:01:59.188Z,7.28
2023-03-20T05:07:00.722Z,7.22
2023-03-20T05:12:01.890Z,7.15
2023-03-20T05:17:03.135Z,7.11
2023-03-20T05:22:04.417Z,7.07
2023-03-20T05:27:05.851Z,7.03
2023-03-20T05:32:06.997Z,7.01
2023-03-20T05:37:08.253Z,6.96
2023-03-20T05:42:09.479Z,6.89
2023-03-20T05:47:10.822Z,6.86
2023-03-20T05:52:12.008Z,6.81
2023-03-20T05:57:13.283Z,6.82
2023-03-20T06:02:14.574Z,6.86
2023-03-20T06:07:16.037Z,6.89
2023-03-20T06:12:17.214Z,6.95
2023-03-20T06:17:18.453Z,6.99
2023-03-20T06:22:19.669Z,7.03
2023-03-20T06:27:20.906Z,7.10
2023-03-20T06:32:22.439Z,7.18
2023-03-20T06:37:23.602Z,7.29
2023-03-20T06:42:24.797Z,7.33
2023-03-20T06:47:26.006Z,7.41
2023-03-20T06:52:27.206Z,7.36
2023-03-20T06:57:28.390Z,7.34
2023-03-20T07:02:29.574Z,7.40
2023-03-20T07:07:30.766Z,7.51
2023-03-20T07:12:32.014Z,7.64
2023-03-20T07:17:33.175Z,7.80
2023-03-20T07:22:34.326Z,7.84
2023-03-20T07:27:36.064Z,7.95
2023-03-20T07:32:38.077Z,8.05
2023-03-20T07:37:40.014Z,8.24
2023-03-20T07:42:41.735Z,8.32
2023-03-20T07:47:42.902Z,8.30
2023-03-20T07:52:44.137Z,8.40
2023-03-20T07:57:45.407Z,8.45
2023-03-20T08:02:46.654Z,8.45
2023-03-20T08:07:47.977Z,8.42
2023-03-20T08:12:49.406Z,8.45
2023-03-20T08:17:50.652Z,8.54
2023-03-20T08:22:52.382Z,8.49
2023-03-20T08:27:53.584Z,8.57
2023-03-20T08:32:54.881Z,8.59
2023-03-20T08:37:56.094Z,8.69
2023-03-20T08:42:57.365Z,8.81
2023-03-20T08:47:58.585Z,8.88
2023-03-20T08:52:59.748Z,9.00
2023-03-20T08:58:00.971Z,9.05
2023-03-20T09:03:02.220Z,9.03
2023-03-20T09:08:03.549Z,8.99
2023-03-20T09:13:23.476Z,9.04
2023-03-20T09:18:26.079Z,9.08
2023-03-20T09:23:27.275Z,9.17
2023-03-20T09:28:28.545Z,9.21
2023-03-20T09:33:29.692Z,9.28
2023-03-20T09:38:30.890Z,9.22
2023-03-20T09:43:32.975Z,9.16
2023-03-20T09:48:34.176Z,9.30
2023-03-20T09:53:35.375Z,9.42
2023-03-20T09:58:36.544Z,9.66
2023-03-20T10:03:37.753Z,9.80
2023-03-20T10:08:39.022Z,10.01
2023-03-20T10:13:40.249Z,10.08
2023-03-20T10:18:41.466Z,10.01
2023-03-20T10:23:42.734Z,9.98
2023-03-20T10:28:44.023Z,9.80
2023-03-20T10:33:46.556Z,9.79
2023-03-20T10:38:47.714Z,9.76
2023-03-20T10:43:48.888Z,9.79
2023-03-20T10:48:50.116Z,9.84
2023-03-20T10:53:51.600Z,9.99
2023-03-20T10:58:52.729Z,10.09
2023-03-20T11:03:55.804Z,10.18
2023-03-20T11:08:58.224Z,10.13
2023-03-20T11:13:59.387Z,10.00
2023-03-20T11:19:00.534Z,10.08
2023-03-20T11:24:01.701Z,10.06
2023-03-20T11:29:02.868Z,10.11
2023-03-20T11:34:04.030Z,9.98
2023-03-20T11:39:05.285Z,9.92
2023-03-20T11:44:06.966Z,9.93
2023-03-20T11:49:08.210Z,9.98
2023-03-20T11:54:09.408Z,9.86
2023-03-20T11:59:11.806Z,9.98
2023-03-20T12:04:13.493Z,9.98
2023-03-20T12:09:14.651Z,9.85
2023-03-20T12:14:15.823Z,9.73
2023-03-20T12:19:18.064Z,9.86
2023-03-20T12:24:19.242Z,9.99
2023-03-20T12:29:21.315Z,9.95
2023-03-20T12:34:22.852Z,9.92
2023-03-20T12:39:24.209Z,9.93
2023-03-20T12:44:25.586Z,9.84
2023-03-20T12:49:26.722Z,9.75
2023-03-20T12:54:27.857Z,9.47
2023-03-20T12:59:29.077Z,9.33
2023-03-20T13:04:30.526Z,9.36
2023-03-20T13:09:31.777Z,9.51
2023-03-20T13:14:32.906Z,9.71
2023-03-20T13:19:34.107Z,9.94
2023-03-20T13:24:35.479Z,10.01
2023-03-20T13:29:36.673Z,10.09
2023-03-20T13:34:37.843Z,10.15
2023-03-20T13:39:39.403Z,10.09
2023-03-20T13:44:40.545Z,10.16
2023-03-20T13:49:41.726Z,10.11
2023-03-20T13:54:43.032Z,10.09
2023-03-20T13:59:44.252Z,10.01
2023-03-20T14:04:45.747Z,10.02
2023-03-20T14:09:46.928Z,10.12
2023-03-20T14:14:48.164Z,10.33
2023-03-20T14:19:50.387Z,10.51
2023-03-20T14:24:51.636Z,10.71
2023-03-20T14:29:52.853Z,10.78
2023-03-20T14:34:54.056Z,10.66
2023-03-20T14:39:55.316Z,10.56
2023-03-20T14:44:56.524Z,10.48
2023-03-20T14:49:57.685Z,10.55
2023-03-20T14:54:58.822Z,10.66
2023-03-20T14:59:59.965Z,10.53
2023-03-20T15:05:01.227Z,10.48
2023-03-20T15:10:03.072Z,10.52
2023-03-20T15:15:04.304Z,10.55
2023-03-20T15:20:06.462Z,10.46
2023-03-20T15:25:08.178Z,10.41
2023-03-20T15:30:09.360Z,10.51
2023-03-20T15:35:10.536Z,10.55
2023-03-20T15:40:11.718Z,10.60
2023-03-20T15:45:12.904Z,10.63
2023-03-20T15:50:15.685Z,10.72
2023-03-20T15:55:16.891Z,10.66
2023-03-20T16:00:18.086Z,10.58
2023-03-20T16:05:19.389Z,10.64
2023-03-20T16:10:20.620Z,10.74
2023-03-20T16:15:22.015Z,10.72
2023-03-20T16:20:23.200Z,10.63
2023-03-20T16:25:24.417Z,10.62
2023-03-20T16:30:26.394Z,10.62
2023-03-20T16:35:27.849Z,10.49
2023-03-20T16:40:31.873Z,10.44
2023-03-20T16:45:33.116Z,10.48
2023-03-20T16:50:34.615Z,10.42
2023-03-20T16:55:35.961Z,10.30
2023-03-20T17:00:37.486Z,10.19
2023-03-20T17:05:38.850Z,10.17
2023-03-20T17:10:40.333Z,10.21
2023-03-20T17:15:42.066Z,10.17
2023-03-20T17:20:43.365Z,10.13
2023-03-20T17:25:44.644Z,10.06
2023-03-20T17:30:45.994Z,10.03
2023-03-20T17:35:47.759Z,10.02
2023-03-20T17:40:49.028Z,10.01
2023-03-20T17:45:50.237Z,9.92
2023-03-20T17:50:51.522Z,9.89
2023-03-20T17:55:52.820Z,9.84
2023-03-20T18:00:55.305Z,9.74
2023-03-20T18:05:56.615Z,9.67
2023-03-20T18:10:57.785Z,9.68
2023-03-20T18:15:59.252Z,9.71
2023-03-20T18:21:00.469Z,9.72
2023-03-20T18:26:01.765Z,9.72
2023-03-20T18:31:02.978Z,9.69
2023-03-20T18:36:04.287Z,9.71
2023-03-20T18:41:05.587Z,9.75
2023-03-20T18:46:06.837Z,9.72
2023-03-20T18:51:08.021Z,9.69
2023-03-20T18:56:09.219Z,9.69
2023-03-20T19:01:13.642Z,9.68
2023-03-20T19:06:15.066Z,9.67
2023-03-20T19:11:18.927Z,9.63
2023-03-20T19:16:21.908Z,9.61
2023-03-20T19:21:26.425Z,9.59
2023-03-20T19:26:27.774Z,9.59
2023-03-20T19:31:29.105Z,9.59
2023-03-20T19:36:30.567Z,9.54
2023-03-20T19:41:32.830Z,9.52
2023-03-20T19:46:42.160Z,9.54
2023-03-20T19:51:43.839Z,9.56
2023-03-20T19:56:45.101Z,9.51
2023-03-20T20:01:46.780Z,9.46
2023-03-20T20:06:48.782Z,9.43
2023-03-20T20:11:50.009Z,9.40
2023-03-20T20:16:55.264Z,9.42
2023-03-20T20:27:18.934Z,9.40
2023-03-20T20:32:20.711Z,9.38
2023-03-20T20:38:19.775Z,9.36
2023-03-20T20:42:43.333Z,9.36
2023-03-20T20:47:47.661Z,9.34
2023-03-20T20:52:49.284Z,9.33
2023-03-20T20:57:50.693Z,9.34
2023-03-20T21:02:52.334Z,9.36
2023-03-20T21:07:54.425Z,9.39
2023-03-20T21:12:59.516Z,9.40
2023-03-20T21:18:02.022Z,9.36
2023-03-20T21:23:03.258Z,9.36
2023-03-20T21:28:04.466Z,9.36
2023-03-20T21:33:05.763Z,9.08
2023-03-20T21:38:55.425Z,9.34
2023-03-20T21:43:28.448Z,9.33
2023-03-20T21:49:12.465Z,9.32
2023-03-20T21:54:51.304Z,9.32
2023-03-20T21:59:48.440Z,9.32
2023-03-20T22:15:54.289Z,9.28
2023-03-20T22:26:58.253Z,9.26
2023-03-20T22:47:22.704Z,9.24
2023-03-20T22:52:37.879Z,9.22
2023-03-20T22:57:47.586Z,9.21
2023-03-20T23:02:57.367Z,9.22
2023-03-20T23:08:04.568Z,9.19
2023-03-20T23:13:05.860Z,9.19
2023-03-20T23:18:07.080Z,9.18
2023-03-20T23:23:08.305Z,9.18
2023-03-20T23:28:09.521Z,9.18
2023-03-20T23:33:10.734Z,9.17
2023-03-20T23:38:11.903Z,9.17
2023-03-20T23:43:13.523Z,9.15
2023-03-20T23:48:14.747Z,9.17
2023-03-20T23:53:20.633Z,9.19
2023-03-20T23:58:22.471Z,9.19
